Time;durP1;ratioP1;P1;durP2;ratioP2;P2;SDS_P1;SDS_P2;PMS_P1;PMS_P2;Temp;Humidity;BMP_temperature;BMP_pressure;BME280_temperature;BME280_humidity;BME280_pressure;Samples;Min_cycle;Max_cycle;Signal;HPM_P1;HPM_P2
2021/10/22 00:02:20;;;;;;;1.50;0.88;;;;;;;;;;5072376;28;20067;-57
2021/10/22 00:04:45;;;;;;;2.75;1.00;;;;;;;;;;5067029;28;20063;-57
2021/10/22 00:07:11;;;;;;;2.17;1.02;;;;;;;;;;5067012;28;20047;-56
2021/10/22 00:09:36;;;;;;;1.42;1.13;;;;;;;;;;5066963;28;20021;-57
2021/10/22 00:12:02;;;;;;;1.20;1.00;;;;;;;;;;5067389;28;20032;-57
2021/10/22 00:14:27;;;;;;;3.85;1.10;;;;;;;;;;5064697;28;20032;-56
2021/10/22 00:16:54;;;;;;;2.70;1.13;;;;;;;;;;5064635;28;20031;-55
2021/10/22 00:19:19;;;;;;;1.50;1.30;;;;;;;;;;5067050;28;20077;-57
2021/10/22 00:21:45;;;;;;;3.38;1.13;;;;;;;;;;5069496;28;20107;-57
2021/10/22 00:24:11;;;;;;;1.90;0.88;;;;;;;;;;5068242;28;20546;-56
2021/10/22 00:26:36;;;;;;;3.50;1.10;;;;;;;;;;5067201;28;20423;-55
2021/10/22 00:29:02;;;;;;;1.30;1.10;;;;;;;;;;5068252;28;20593;-57
2021/10/22 00:31:27;;;;;;;0.70;0.70;;;;;;;;;;5066933;28;20024;-56
2021/10/22 00:33:53;;;;;;;1.70;1.02;;;;;;;;;;5070317;28;20028;-56
2021/10/22 00:36:21;;;;;;;2.08;1.00;;;;;;;;;;5065360;28;20056;-57
2021/10/22 00:38:47;;;;;;;5.60;1.25;;;;;;;;;;5063764;28;20021;-56
2021/10/22 00:41:14;;;;;;;1.60;0.98;;;;;;;;;;5067094;28;20181;-56
2021/10/22 00:43:39;;;;;;;1.42;1.10;;;;;;;;;;5066457;28;20035;-57
2021/10/22 00:46:05;;;;;;;1.98;1.20;;;;;;;;;;5065212;28;20024;-57
2021/10/22 00:48:30;;;;;;;2.40;1.05;;;;;;;;;;5067610;28;20036;-57
2021/10/22 00:51:00;;;;;;;3.30;1.20;;;;;;;;;;5068028;28;20111;-56
2021/10/22 00:53:28;;;;;;;2.55;1.17;;;;;;;;;;5065537;28;20025;-57
2021/10/22 00:55:55;;;;;;;3.20;1.13;;;;;;;;;;5069148;28;20067;-55
2021/10/22 00:58:22;;;;;;;3.83;1.20;;;;;;;;;;5066215;28;20108;-56
2021/10/22 01:00:48;;;;;;;1.83;1.10;;;;;;;;;;5070518;28;20081;-57
2021/10/22 01:03:14;;;;;;;1.85;1.10;;;;;;;;;;5066307;28;20487;-58
2021/10/22 01:05:39;;;;;;;1.27;0.85;;;;;;;;;;5066101;28;20032;-57
2021/10/22 01:08:08;;;;;;;1.27;1.10;;;;;;;;;;5063339;28;20021;-55
2021/10/22 01:10:36;;;;;;;3.88;1.10;;;;;;;;;;5065677;28;20028;-56
2021/10/22 01:13:02;;;;;;;2.33;1.50;;;;;;;;;;5067773;28;20029;-54
2021/10/22 01:15:28;;;;;;;1.63;1.10;;;;;;;;;;5066511;28;20441;-54
2021/10/22 01:17:53;;;;;;;2.08;1.00;;;;;;;;;;5070551;28;20016;-53
2021/10/22 01:20:22;;;;;;;3.20;1.20;;;;;;;;;;5071322;28;20020;-55
2021/10/22 01:22:50;;;;;;;2.75;1.38;;;;;;;;;;5069999;28;20021;-53
2021/10/22 01:25:18;;;;;;;2.15;1.70;;;;;;;;;;5071111;28;20429;-54
2021/10/22 01:27:45;;;;;;;1.77;1.30;;;;;;;;;;5068846;28;20025;-55
2021/10/22 01:30:13;;;;;;;1.88;1.23;;;;;;;;;;5072448;28;20028;-56
2021/10/22 01:32:39;;;;;;;1.42;1.30;;;;;;;;;;5070028;28;20024;-56
2021/10/22 01:35:06;;;;;;;1.35;1.10;;;;;;;;;;5069601;28;20194;-56
2021/10/22 01:37:31;;;;;;;2.00;1.23;;;;;;;;;;5071151;28;20060;-55
2021/10/22 01:39:57;;;;;;;2.97;1.38;;;;;;;;;;5070609;28;20459;-56
2021/10/22 01:42:23;;;;;;;1.77;1.38;;;;;;;;;;5071043;28;20081;-56
2021/10/22 01:44:49;;;;;;;3.45;1.38;;;;;;;;;;5073093;28;20503;-57
2021/10/22 01:47:15;;;;;;;2.38;1.75;;;;;;;;;;5066766;28;20044;-56
2021/10/22 01:49:40;;;;;;;2.60;1.60;;;;;;;;;;5070260;28;20070;-55
2021/10/22 01:52:06;;;;;;;2.63;1.80;;;;;;;;;;5071170;28;20040;-56
2021/10/22 01:54:31;;;;;;;2.42;1.70;;;;;;;;;;5069692;28;20388;-55
2021/10/22 01:56:57;;;;;;;3.20;1.60;;;;;;;;;;5068008;28;20086;-55
2021/10/22 01:59:23;;;;;;;4.07;1.55;;;;;;;;;;5069448;28;20025;-56
2021/10/22 02:01:49;;;;;;;1.88;1.60;;;;;;;;;;5069334;28;20030;-55
2021/10/22 02:04:14;;;;;;;2.55;1.60;;;;;;;;;;5072774;28;20331;-55
2021/10/22 02:06:40;;;;;;;3.97;2.00;;;;;;;;;;5067748;28;20029;-56
2021/10/22 02:09:05;;;;;;;1.98;1.60;;;;;;;;;;5068418;28;20040;-55
2021/10/22 02:11:30;;;;;;;2.85;1.60;;;;;;;;;;5071503;28;20028;-55
2021/10/22 02:13:56;;;;;;;3.42;1.70;;;;;;;;;;5070716;28;20614;-55
2021/10/22 02:16:21;;;;;;;4.07;1.70;;;;;;;;;;5070115;28;20036;-55
2021/10/22 02:18:47;;;;;;;2.28;1.65;;;;;;;;;;5066103;28;20078;-55
2021/10/22 02:21:12;;;;;;;4.22;1.40;;;;;;;;;;5071470;28;20502;-54
2021/10/22 02:23:38;;;;;;;3.47;1.63;;;;;;;;;;5069301;28;20044;-55
2021/10/22 02:26:03;;;;;;;6.82;1.90;;;;;;;;;;5070870;28;20159;-55
2021/10/22 02:28:29;;;;;;;5.03;2.17;;;;;;;;;;5067718;28;20112;-57
2021/10/22 02:30:55;;;;;;;4.88;1.33;;;;;;;;;;5069934;28;20498;-55
2021/10/22 02:33:21;;;;;;;1.95;1.10;;;;;;;;;;5077651;28;20477;-55
2021/10/22 02:35:47;;;;;;;4.03;1.60;;;;;;;;;;5069621;28;20055;-56
2021/10/22 02:38:12;;;;;;;3.58;1.63;;;;;;;;;;5070352;28;20487;-55
2021/10/22 02:40:38;;;;;;;2.53;1.70;;;;;;;;;;5068356;28;20035;-56
2021/10/22 02:43:03;;;;;;;4.90;1.95;;;;;;;;;;5069315;28;20414;-56
2021/10/22 02:45:29;;;;;;;3.65;2.20;;;;;;;;;;5068203;28;20043;-57
2021/10/22 02:47:54;;;;;;;5.15;1.70;;;;;;;;;;5068710;28;20443;-55
2021/10/22 02:50:21;;;;;;;4.32;1.70;;;;;;;;;;5071555;28;20075;-55
2021/10/22 02:52:47;;;;;;;4.95;2.00;;;;;;;;;;5069602;28;20112;-53
2021/10/22 02:55:12;;;;;;;2.38;1.88;;;;;;;;;;5068762;28;20107;-54
2021/10/22 02:57:38;;;;;;;2.97;1.58;;;;;;;;;;5067675;28;20081;-55
2021/10/22 03:00:05;;;;;;;5.55;1.85;;;;;;;;;;5068065;28;20036;-56
2021/10/22 03:02:31;;;;;;;5.07;1.85;;;;;;;;;;5066894;28;20025;-57
2021/10/22 03:04:56;;;;;;;5.47;2.00;;;;;;;;;;5067129;28;20020;-55
2021/10/22 03:07:22;;;;;;;4.68;1.70;;;;;;;;;;5067539;28;20116;-56
2021/10/22 03:09:47;;;;;;;4.40;1.92;;;;;;;;;;5070993;28;20387;-55
2021/10/22 03:12:12;;;;;;;3.03;1.50;;;;;;;;;;5066000;28;20048;-54
2021/10/22 03:14:38;;;;;;;5.57;2.10;;;;;;;;;;5070098;28;20147;-54
2021/10/22 03:17:03;;;;;;;6.45;2.40;;;;;;;;;;5069668;28;20063;-56
2021/10/22 03:19:29;;;;;;;3.95;2.30;;;;;;;;;;5070925;28;20105;-57
2021/10/22 03:21:54;;;;;;;8.43;2.33;;;;;;;;;;5069395;28;20025;-54
2021/10/22 03:24:20;;;;;;;3.65;1.90;;;;;;;;;;5069152;28;20388;-54
2021/10/22 03:26:45;;;;;;;5.90;2.10;;;;;;;;;;5065994;28;20029;-53
2021/10/22 03:29:11;;;;;;;6.47;1.90;;;;;;;;;;5068268;28;20111;-56
2021/10/22 03:31:36;;;;;;;5.50;1.70;;;;;;;;;;5071674;28;20493;-55
2021/10/22 03:34:02;;;;;;;3.13;1.67;;;;;;;;;;5069400;28;20073;-55
2021/10/22 03:36:27;;;;;;;5.70;1.95;;;;;;;;;;5066996;28;20033;-55
2021/10/22 03:38:53;;;;;;;3.53;1.58;;;;;;;;;;5065413;28;20120;-54
2021/10/22 03:41:18;;;;;;;6.47;1.90;;;;;;;;;;5069400;28;20028;-56
2021/10/22 03:43:44;;;;;;;6.28;1.90;;;;;;;;;;5072269;28;20032;-55
2021/10/22 03:46:10;;;;;;;2.75;1.73;;;;;;;;;;5069163;28;20048;-55
2021/10/22 03:48:35;;;;;;;5.93;1.63;;;;;;;;;;5067287;28;20024;-55
2021/10/22 03:51:00;;;;;;;3.83;2.25;;;;;;;;;;5066498;28;20534;-54
2021/10/22 03:53:26;;;;;;;4.60;1.75;;;;;;;;;;5067935;28;20027;-55
2021/10/22 03:55:51;;;;;;;5.88;2.28;;;;;;;;;;5076538;28;20322;-56
2021/10/22 03:58:19;;;;;;;5.47;1.73;;;;;;;;;;5065129;28;20036;-54
2021/10/22 04:00:46;;;;;;;5.47;1.75;;;;;;;;;;5068560;28;20051;-55
2021/10/22 04:03:12;;;;;;;3.40;1.75;;;;;;;;;;5068936;28;20020;-55
2021/10/22 04:05:38;;;;;;;6.65;2.00;;;;;;;;;;5068284;28;20027;-54
2021/10/22 04:08:03;;;;;;;4.13;1.48;;;;;;;;;;5068015;28;20103;-55
2021/10/22 04:10:29;;;;;;;5.32;1.67;;;;;;;;;;5063597;28;20032;-57
2021/10/22 04:12:54;;;;;;;37.45;11.77;;;;;;;;;;5067022;28;20039;-56
2021/10/22 04:15:19;;;;;;;90.57;25.98;;;;;;;;;;5070959;28;20030;-56
2021/10/22 04:17:45;;;;;;;49.85;18.10;;;;;;;;;;5064766;28;20028;-56
2021/10/22 04:20:11;;;;;;;49.17;16.35;;;;;;;;;;5068170;28;20158;-55
2021/10/22 04:22:36;;;;;;;37.53;13.10;;;;;;;;;;5063586;28;20150;-57
2021/10/22 04:25:04;;;;;;;18.60;6.57;;;;;;;;;;5067188;28;20090;-55
2021/10/22 04:27:32;;;;;;;37.47;10.63;;;;;;;;;;5075722;28;20095;-55
2021/10/22 04:30:00;;;;;;;60.30;17.85;;;;;;;;;;5066291;28;20073;-55
2021/10/22 04:32:25;;;;;;;31.50;9.43;;;;;;;;;;5069492;28;20036;-55
2021/10/22 04:34:51;;;;;;;17.38;5.15;;;;;;;;;;5066602;28;20167;-55
2021/10/22 04:37:26;;;;;;;19.25;7.50;;;;;;;;;;5068853;28;20089;-58
2021/10/22 04:42:40;;;;;;;5.97;3.00;;;;;;;;;;5065968;28;20459;-52
2021/10/22 04:45:10;;;;;;;10.13;4.20;;;;;;;;;;5064957;28;20032;-54
2021/10/22 04:47:36;;;;;;;6.90;3.38;;;;;;;;;;5068969;28;20032;-55
2021/10/22 04:50:03;;;;;;;6.85;2.80;;;;;;;;;;5067522;28;20085;-56
2021/10/22 04:52:29;;;;;;;4.32;2.40;;;;;;;;;;5073147;28;20103;-56
2021/10/22 04:54:54;;;;;;;6.75;2.38;;;;;;;;;;5070860;28;20111;-54
2021/10/22 04:57:20;;;;;;;8.65;2.33;;;;;;;;;;5072721;28;20028;-54
2021/10/22 04:59:45;;;;;;;3.63;2.58;;;;;;;;;;5066068;28;20055;-54
2021/10/22 05:02:10;;;;;;;5.90;2.30;;;;;;;;;;5070242;28;20024;-53
2021/10/22 05:04:36;;;;;;;4.63;2.50;;;;;;;;;;5069203;28;20466;-54
2021/10/22 05:07:02;;;;;;;6.60;2.50;;;;;;;;;;5070442;28;20042;-54
2021/10/22 05:09:27;;;;;;;5.75;1.98;;;;;;;;;;5067304;28;20335;-58
2021/10/22 05:11:53;;;;;;;5.50;2.00;;;;;;;;;;5070152;28;20115;-56
2021/10/22 05:14:19;;;;;;;7.13;3.90;;;;;;;;;;5070321;28;20054;-57
2021/10/22 05:16:44;;;;;;;15.23;5.32;;;;;;;;;;5075702;28;20035;-57
2021/10/22 05:19:10;;;;;;;10.35;3.85;;;;;;;;;;5065655;28;20302;-57
2021/10/22 05:21:35;;;;;;;11.63;4.15;;;;;;;;;;5066752;28;20032;-57
2021/10/22 05:24:00;;;;;;;8.05;3.90;;;;;;;;;;5069549;28;20398;-56
2021/10/22 05:26:26;;;;;;;10.00;2.42;;;;;;;;;;5070636;28;20024;-56
2021/10/22 05:28:51;;;;;;;6.47;1.80;;;;;;;;;;5069323;28;20024;-55
2021/10/22 05:31:17;;;;;;;4.57;2.00;;;;;;;;;;5069802;28;20169;-56
2021/10/22 05:33:42;;;;;;;6.97;1.95;;;;;;;;;;5067097;28;20125;-56
2021/10/22 05:36:08;;;;;;;3.83;2.03;;;;;;;;;;5068356;28;20029;-57
2021/10/22 05:38:33;;;;;;;4.25;2.03;;;;;;;;;;5071182;28;20033;-56
2021/10/22 05:40:59;;;;;;;10.68;3.65;;;;;;;;;;5069864;28;20029;-56
2021/10/22 05:43:24;;;;;;;4.05;2.42;;;;;;;;;;5067630;28;20032;-56
2021/10/22 05:45:50;;;;;;;3.65;2.22;;;;;;;;;;5071148;28;20601;-56
2021/10/22 05:48:15;;;;;;;7.10;2.00;;;;;;;;;;5068646;28;20122;-57
2021/10/22 05:50:41;;;;;;;4.47;2.03;;;;;;;;;;5066161;28;20607;-56
2021/10/22 05:53:07;;;;;;;4.63;2.22;;;;;;;;;;5069803;28;20024;-55
2021/10/22 05:55:32;;;;;;;5.05;2.20;;;;;;;;;;5069651;28;20032;-56
2021/10/22 05:57:58;;;;;;;4.03;2.25;;;;;;;;;;5069914;28;20036;-55
2021/10/22 06:00:23;;;;;;;7.95;2.65;;;;;;;;;;5071367;28;20185;-56
2021/10/22 06:02:53;;;;;;;5.47;1.98;;;;;;;;;;5070152;28;20546;-56
2021/10/22 06:05:18;;;;;;;5.30;2.00;;;;;;;;;;5067649;28;20148;-56
2021/10/22 06:07:44;;;;;;;6.97;1.95;;;;;;;;;;5068202;28;20028;-54
2021/10/22 06:10:10;;;;;;;8.13;2.47;;;;;;;;;;5063737;28;20036;-56
2021/10/22 06:12:35;;;;;;;4.30;2.00;;;;;;;;;;5065863;28;20047;-56
2021/10/22 06:15:01;;;;;;;6.57;2.08;;;;;;;;;;5065921;28;20043;-54
2021/10/22 06:17:27;;;;;;;9.00;2.35;;;;;;;;;;5068521;28;20055;-56
2021/10/22 06:19:57;;;;;;;8.05;2.58;;;;;;;;;;5064837;28;20025;-56
2021/10/22 06:22:41;;;;;;;11.95;2.67;;;;;;;;;;5068227;28;20035;-56
2021/10/22 06:25:06;;;;;;;9.98;2.35;;;;;;;;;;5067685;28;20032;-56
2021/10/22 06:27:32;;;;;;;5.25;2.45;;;;;;;;;;5068803;28;20032;-57
2021/10/22 06:29:57;;;;;;;6.07;3.10;;;;;;;;;;5064772;28;20158;-56
2021/10/22 06:32:23;;;;;;;7.68;3.00;;;;;;;;;;5070034;28;20143;-57
2021/10/22 06:34:49;;;;;;;10.43;3.53;;;;;;;;;;5069674;28;20029;-57
2021/10/22 06:37:14;;;;;;;9.60;2.05;;;;;;;;;;5067147;28;20454;-55
2021/10/22 06:39:40;;;;;;;8.98;2.53;;;;;;;;;;5063997;28;20020;-55
2021/10/22 06:42:05;;;;;;;7.03;2.67;;;;;;;;;;5068076;28;20036;-56
2021/10/22 06:44:31;;;;;;;10.77;2.95;;;;;;;;;;5067283;28;20029;-56
2021/10/22 06:46:57;;;;;;;15.43;3.25;;;;;;;;;;5066064;28;20024;-56
2021/10/22 06:49:23;;;;;;;15.65;3.60;;;;;;;;;;5066633;28;20434;-56
2021/10/22 06:51:48;;;;;;;15.23;3.45;;;;;;;;;;5067322;28;20028;-55
2021/10/22 06:54:14;;;;;;;11.18;3.47;;;;;;;;;;5066457;28;20515;-55
2021/10/22 06:56:39;;;;;;;14.35;3.10;;;;;;;;;;5070409;28;20064;-56
2021/10/22 06:59:05;;;;;;;17.30;3.08;;;;;;;;;;5068035;28;20032;-56
2021/10/22 07:01:30;;;;;;;11.48;2.95;;;;;;;;;;5064163;28;21637;-57
2021/10/22 07:03:56;;;;;;;14.98;3.38;;;;;;;;;;5068190;28;20103;-57
2021/10/22 07:09:05;;;;;;;10.50;3.00;;;;;;;;;;5067787;28;20042;-56
2021/10/22 07:11:31;;;;;;;12.02;2.83;;;;;;;;;;5066423;28;20037;-56
2021/10/22 07:13:58;;;;;;;9.10;2.28;;;;;;;;;;5072076;28;20030;-56
2021/10/22 07:16:29;;;;;;;9.15;2.72;;;;;;;;;;5068596;28;20023;-57
2021/10/22 07:18:55;;;;;;;7.88;2.40;;;;;;;;;;5075099;28;20032;-56
2021/10/22 07:21:21;;;;;;;9.73;2.65;;;;;;;;;;5067604;28;20025;-55
2021/10/22 07:23:49;;;;;;;12.10;2.47;;;;;;;;;;5068916;28;20104;-55
2021/10/22 07:26:16;;;;;;;10.57;2.38;;;;;;;;;;5065866;28;20028;-55
2021/10/22 07:28:42;;;;;;;15.73;2.60;;;;;;;;;;5068065;28;20206;-55
2021/10/22 07:31:10;;;;;;;15.15;2.30;;;;;;;;;;5068536;28;20459;-57
2021/10/22 07:33:37;;;;;;;11.05;2.70;;;;;;;;;;5068907;28;20506;-55
2021/10/22 07:36:06;;;;;;;11.45;2.58;;;;;;;;;;5066107;28;20024;-56
2021/10/22 07:38:31;;;;;;;5.70;2.45;;;;;;;;;;5070627;28;20479;-55
2021/10/22 07:40:57;;;;;;;15.63;3.22;;;;;;;;;;5066745;28;20125;-56
2021/10/22 07:43:22;;;;;;;9.18;2.70;;;;;;;;;;5067499;28;20510;-56
2021/10/22 07:45:48;;;;;;;6.38;2.35;;;;;;;;;;5065603;28;20039;-56
2021/10/22 07:48:14;;;;;;;12.65;3.38;;;;;;;;;;5067221;28;20106;-56
2021/10/22 07:50:40;;;;;;;12.25;2.70;;;;;;;;;;5069491;28;20384;-57
2021/10/22 07:53:06;;;;;;;9.15;3.13;;;;;;;;;;5066176;28;20082;-55
2021/10/22 07:55:33;;;;;;;8.70;3.00;;;;;;;;;;5066923;28;20434;-56
2021/10/22 07:57:58;;;;;;;9.50;3.10;;;;;;;;;;5065247;28;20399;-57
2021/10/22 08:00:24;;;;;;;5.57;2.83;;;;;;;;;;5070021;28;20033;-56
2021/10/22 08:02:50;;;;;;;6.80;3.10;;;;;;;;;;5065814;28;20473;-56
2021/10/22 08:05:15;;;;;;;5.28;3.03;;;;;;;;;;5067814;28;20104;-55
2021/10/22 08:07:41;;;;;;;10.35;3.08;;;;;;;;;;5063485;28;20468;-56
2021/10/22 08:10:08;;;;;;;7.32;3.40;;;;;;;;;;5068493;28;20031;-56
2021/10/22 08:12:35;;;;;;;8.27;3.22;;;;;;;;;;5065450;28;20083;-57
2021/10/22 08:15:00;;;;;;;7.97;3.53;;;;;;;;;;5065438;28;20445;-56
2021/10/22 08:17:26;;;;;;;11.20;3.72;;;;;;;;;;5067500;28;20028;-57
2021/10/22 08:20:05;;;;;;;10.52;3.88;;;;;;;;;;5066617;28;20024;-57
2021/10/22 08:22:32;;;;;;;9.38;3.50;;;;;;;;;;5064898;28;20480;-56
2021/10/22 08:25:20;;;;;;;11.30;3.88;;;;;;;;;;5066569;28;20040;-58
2021/10/22 08:27:49;;;;;;;6.60;3.25;;;;;;;;;;5069057;28;20470;-56
2021/10/22 08:30:23;;;;;;;7.82;2.83;;;;;;;;;;5066889;28;20032;-58
2021/10/22 08:32:51;;;;;;;9.30;3.53;;;;;;;;;;5065875;28;20059;-57
2021/10/22 08:35:20;;;;;;;6.97;4.18;;;;;;;;;;5067696;28;20119;-56
2021/10/22 08:37:47;;;;;;;8.65;3.67;;;;;;;;;;5064634;28;20046;-56
2021/10/22 08:40:14;;;;;;;14.07;4.70;;;;;;;;;;5065822;28;20062;-56
2021/10/22 08:42:40;;;;;;;18.15;6.30;;;;;;;;;;5060923;28;20032;-55
2021/10/22 08:45:06;;;;;;;9.65;3.78;;;;;;;;;;5067523;28;20406;-57
2021/10/22 08:47:34;;;;;;;11.10;3.53;;;;;;;;;;5067475;28;20059;-54
2021/10/22 08:50:03;;;;;;;8.35;3.00;;;;;;;;;;5068523;28;20092;-55
2021/10/22 08:52:30;;;;;;;13.02;3.30;;;;;;;;;;5068690;28;20043;-54
2021/10/22 08:54:56;;;;;;;8.00;2.70;;;;;;;;;;5069497;28;20677;-56
2021/10/22 08:57:22;;;;;;;9.52;2.65;;;;;;;;;;5066593;28;20047;-57
2021/10/22 08:59:47;;;;;;;7.95;2.58;;;;;;;;;;5067282;28;20024;-57
2021/10/22 09:02:21;;;;;;;9.73;2.80;;;;;;;;;;5067601;28;20034;-55
2021/10/22 09:04:47;;;;;;;7.47;2.40;;;;;;;;;;5065165;28;20154;-57
2021/10/22 09:07:16;;;;;;;16.13;4.65;;;;;;;;;;5064335;28;20028;-57
2021/10/22 09:09:43;;;;;;;9.10;2.97;;;;;;;;;;5065370;28;20024;-57
2021/10/22 09:12:09;;;;;;;14.77;4.07;;;;;;;;;;5069338;28;20025;-55
2021/10/22 09:14:35;;;;;;;12.32;2.78;;;;;;;;;;5067237;28;20390;-55
2021/10/22 09:17:08;;;;;;;13.68;2.22;;;;;;;;;;5067486;28;20020;-57
2021/10/22 09:19:36;;;;;;;11.73;3.92;;;;;;;;;;5068201;28;20033;-57
2021/10/22 09:22:21;;;;;;;10.13;2.20;;;;;;;;;;5067975;28;20023;-56
2021/10/22 09:24:53;;;;;;;9.55;3.08;;;;;;;;;;5066128;28;20435;-56
2021/10/22 09:27:36;;;;;;;10.98;3.67;;;;;;;;;;5068805;28;20442;-56
2021/10/22 09:30:06;;;;;;;11.68;2.30;;;;;;;;;;5067492;28;20111;-56
2021/10/22 09:32:32;;;;;;;6.72;1.70;;;;;;;;;;5068565;28;20032;-56
2021/10/22 09:34:58;;;;;;;10.82;3.00;;;;;;;;;;5068152;28;20486;-58
2021/10/22 09:37:34;;;;;;;8.35;1.88;;;;;;;;;;5071783;28;20082;-57
2021/10/22 09:40:00;;;;;;;11.02;2.22;;;;;;;;;;5071349;28;20030;-56
2021/10/22 09:42:26;;;;;;;8.15;2.20;;;;;;;;;;5067909;28;20031;-56
2021/10/22 09:44:51;;;;;;;6.93;1.90;;;;;;;;;;5068679;28;20382;-57
2021/10/22 09:47:20;;;;;;;7.63;2.13;;;;;;;;;;5066990;28;20127;-56
2021/10/22 09:49:52;;;;;;;8.13;1.67;;;;;;;;;;5070793;28;20024;-56
2021/10/22 09:52:21;;;;;;;9.57;1.80;;;;;;;;;;5068186;28;20036;-57
2021/10/22 09:55:02;;;;;;;7.23;2.03;;;;;;;;;;5067270;28;20025;-57
2021/10/22 09:57:28;;;;;;;8.57;1.80;;;;;;;;;;5068048;28;20275;-56
2021/10/22 10:00:08;;;;;;;8.00;1.50;;;;;;;;;;5066922;28;20092;-56
2021/10/22 10:02:40;;;;;;;4.43;2.10;;;;;;;;;;5066939;28;20039;-57
2021/10/22 10:05:07;;;;;;;12.07;2.80;;;;;;;;;;5071477;28;20077;-57
2021/10/22 10:07:45;;;;;;;9.82;2.67;;;;;;;;;;5064868;28;20047;-59
2021/10/22 10:10:12;;;;;;;10.68;2.40;;;;;;;;;;5066225;28;20020;-58
2021/10/22 10:12:39;;;;;;;7.68;1.77;;;;;;;;;;5066557;28;20047;-58
2021/10/22 10:15:05;;;;;;;10.10;1.88;;;;;;;;;;5069686;28;20406;-57
2021/10/22 10:17:38;;;;;;;8.40;1.80;;;;;;;;;;5063946;28;20086;-57
2021/10/22 10:20:05;;;;;;;6.82;1.98;;;;;;;;;;5066274;28;20042;-56
2021/10/22 10:22:32;;;;;;;7.18;1.85;;;;;;;;;;5066419;28;20048;-57
2021/10/22 10:25:01;;;;;;;5.35;1.65;;;;;;;;;;5068771;28;20461;-57
2021/10/22 10:27:27;;;;;;;9.00;2.80;;;;;;;;;;5067151;28;20115;-58
2021/10/22 10:29:59;;;;;;;10.40;2.58;;;;;;;;;;5067820;28;20467;-57
2021/10/22 10:32:29;;;;;;;8.25;1.73;;;;;;;;;;5068921;28;20036;-57
2021/10/22 10:35:00;;;;;;;10.00;2.00;;;;;;;;;;5069219;28;20082;-58
2021/10/22 10:37:37;;;;;;;7.05;1.50;;;;;;;;;;5067115;28;20032;-58
2021/10/22 10:40:34;;;;;;;8.43;2.53;;;;;;;;;;5067723;28;20048;-58
2021/10/22 10:43:01;;;;;;;11.18;2.83;;;;;;;;;;5039453;28;20034;-58
2021/10/22 10:45:27;;;;;;;10.80;2.10;;;;;;;;;;5068483;28;20502;-58
2021/10/22 10:47:54;;;;;;;9.27;2.88;;;;;;;;;;5064710;28;20044;-58
2021/10/22 10:50:23;;;;;;;8.57;1.90;;;;;;;;;;5065510;28;20063;-57
2021/10/22 10:52:51;;;;;;;5.68;1.70;;;;;;;;;;5064303;28;20102;-57
2021/10/22 10:55:30;;;;;;;7.95;1.75;;;;;;;;;;5065475;28;20048;-58
2021/10/22 10:57:57;;;;;;;7.55;1.73;;;;;;;;;;5063049;28;20410;-58
2021/10/22 11:00:33;;;;;;;8.57;1.80;;;;;;;;;;5066975;28;20028;-58
2021/10/22 11:03:02;;;;;;;5.95;1.45;;;;;;;;;;5066054;28;20031;-58
2021/10/22 11:05:49;;;;;;;8.43;1.52;;;;;;;;;;5066806;28;20364;-58
2021/10/22 11:08:22;;;;;;;8.70;1.60;;;;;;;;;;5064938;28;20030;-58
2021/10/22 11:10:57;;;;;;;9.85;2.00;;;;;;;;;;5062441;28;20056;-58
2021/10/22 11:13:23;;;;;;;11.85;2.42;;;;;;;;;;5062572;28;20024;-57
2021/10/22 11:15:50;;;;;;;9.50;1.98;;;;;;;;;;5064007;28;20121;-58
2021/10/22 11:18:18;;;;;;;6.38;2.30;;;;;;;;;;5066217;28;20027;-57
2021/10/22 11:20:44;;;;;;;7.18;1.75;;;;;;;;;;5065444;28;20442;-58
2021/10/22 11:23:13;;;;;;;9.75;1.40;;;;;;;;;;5063137;28;20034;-58
2021/10/22 11:25:40;;;;;;;6.38;1.33;;;;;;;;;;5066824;28;20020;-58
2021/10/22 11:28:10;;;;;;;8.75;1.55;;;;;;;;;;5066435;28;20086;-57
2021/10/22 11:30:36;;;;;;;7.07;1.52;;;;;;;;;;5068539;28;20064;-57
2021/10/22 11:33:02;;;;;;;8.13;1.90;;;;;;;;;;5064301;28;20056;-58
2021/10/22 11:35:30;;;;;;;8.75;2.40;;;;;;;;;;5066713;28;20040;-58
2021/10/22 11:38:05;;;;;;;7.03;1.58;;;;;;;;;;5069522;28;20077;-58
2021/10/22 11:40:30;;;;;;;7.43;2.22;;;;;;;;;;5066732;28;20180;-57
2021/10/22 11:43:10;;;;;;;7.60;2.38;;;;;;;;;;5065565;28;20152;-57
2021/10/22 11:45:36;;;;;;;9.38;2.03;;;;;;;;;;5065583;28;20399;-57
2021/10/22 11:48:01;;;;;;;13.25;2.50;;;;;;;;;;5064541;28;20025;-56
2021/10/22 11:50:34;;;;;;;8.95;2.30;;;;;;;;;;5063987;28;20573;-57
2021/10/22 11:53:15;;;;;;;8.90;2.10;;;;;;;;;;5072738;28;20514;-57
2021/10/22 11:55:50;;;;;;;12.45;4.05;;;;;;;;;;5063197;28;20089;-57
2021/10/22 11:58:18;;;;;;;12.05;4.50;;;;;;;;;;5069036;28;20036;-55
2021/10/22 12:00:55;;;;;;;11.65;3.85;;;;;;;;;;5065111;28;20033;-57
2021/10/22 12:03:36;;;;;;;7.30;1.55;;;;;;;;;;5063980;28;20028;-57
2021/10/22 12:06:02;;;;;;;7.68;2.17;;;;;;;;;;5065502;28;20072;-58
2021/10/22 12:08:31;;;;;;;6.00;1.52;;;;;;;;;;5066674;28;20024;-56
2021/10/22 12:11:02;;;;;;;8.68;2.00;;;;;;;;;;5067019;28;20027;-57
2021/10/22 12:13:29;;;;;;;5.72;1.73;;;;;;;;;;5065295;28;20572;-57
2021/10/22 12:16:08;;;;;;;8.93;1.52;;;;;;;;;;5065520;28;20078;-57
2021/10/22 12:18:33;;;;;;;4.18;1.10;;;;;;;;;;5065994;28;20521;-58
2021/10/22 12:20:59;;;;;;;10.13;1.58;;;;;;;;;;5043662;28;20083;-57
2021/10/22 12:23:26;;;;;;;4.80;1.50;;;;;;;;;;5066119;28;20303;-56
2021/10/22 12:25:52;;;;;;;7.85;2.50;;;;;;;;;;5065924;28;20074;-56
2021/10/22 12:28:17;;;;;;;7.47;2.20;;;;;;;;;;5066826;28;20036;-58
2021/10/22 12:30:44;;;;;;;7.53;2.10;;;;;;;;;;5066224;28;20032;-57
2021/10/22 12:33:11;;;;;;;6.07;1.77;;;;;;;;;;5065143;28;20038;-56
2021/10/22 12:35:52;;;;;;;12.45;2.65;;;;;;;;;;5067399;28;20025;-54
2021/10/22 12:38:27;;;;;;;6.78;1.85;;;;;;;;;;5063835;28;20032;-57
2021/10/22 12:40:54;;;;;;;9.68;2.15;;;;;;;;;;5077278;28;20142;-57
2021/10/22 12:43:37;;;;;;;7.65;2.00;;;;;;;;;;5063500;28;20031;-58
2021/10/22 12:46:06;;;;;;;18.40;2.03;;;;;;;;;;5063455;28;20024;-58
2021/10/22 12:48:31;;;;;;;;;;;;;;;;;;5076401;28;20507;-58
2021/10/22 12:51:15;;;;;;;6.78;1.55;;;;;;;;;;5066335;28;19954;-58
2021/10/22 12:53:46;;;;;;;14.77;1.95;;;;;;;;;;5066834;28;20321;-58
2021/10/22 12:56:15;;;;;;;5.00;1.20;;;;;;;;;;5063970;28;20047;-57
2021/10/22 12:58:57;;;;;;;4.63;1.38;;;;;;;;;;5061537;28;20487;-58
2021/10/22 13:01:33;;;;;;;7.95;1.45;;;;;;;;;;5061949;28;20499;-58
2021/10/22 13:04:01;;;;;;;6.32;1.40;;;;;;;;;;5062854;28;20052;-58
2021/10/22 13:06:39;;;;;;;6.53;1.50;;;;;;;;;;5063793;28;20035;-60
2021/10/22 13:22:23;;;;;;;7.20;1.33;;;;;;;;;;5065026;28;20040;-57
2021/10/22 13:24:53;;;;;;;3.30;1.30;;;;;;;;;;5069727;28;20028;-56
2021/10/22 13:27:20;;;;;;;5.60;1.95;;;;;;;;;;5066465;28;20662;-57
2021/10/22 13:29:48;;;;;;;5.85;2.13;;;;;;;;;;5068959;28;20066;-57
2021/10/22 13:32:14;;;;;;;8.32;1.90;;;;;;;;;;5069667;28;20032;-57
2021/10/22 13:34:39;;;;;;;6.80;1.95;;;;;;;;;;5068102;28;20033;-57
2021/10/22 13:37:05;;;;;;;8.48;2.88;;;;;;;;;;5066428;28;20025;-58
2021/10/22 13:39:30;;;;;;;5.18;1.55;;;;;;;;;;5067703;28;20025;-57
2021/10/22 13:41:56;;;;;;;8.40;1.83;;;;;;;;;;5068950;28;20466;-57
2021/10/22 13:44:21;;;;;;;5.65;1.65;;;;;;;;;;5064853;28;20029;-57
2021/10/22 13:46:49;;;;;;;5.65;1.58;;;;;;;;;;5066789;28;20158;-57
2021/10/22 13:49:14;;;;;;;6.57;1.65;;;;;;;;;;5067958;28;20112;-57
2021/10/22 13:51:40;;;;;;;4.78;1.70;;;;;;;;;;5065619;28;20058;-58
2021/10/22 13:54:05;;;;;;;4.75;1.20;;;;;;;;;;5068337;28;20046;-58
2021/10/22 13:56:31;;;;;;;8.23;1.23;;;;;;;;;;5065346;28;20042;-58
2021/10/22 13:58:57;;;;;;;5.28;1.35;;;;;;;;;;5068746;28;20024;-58
2021/10/22 14:01:22;;;;;;;6.57;1.30;;;;;;;;;;5069602;28;20029;-58
2021/10/22 14:03:47;;;;;;;3.70;1.50;;;;;;;;;;5071881;28;20020;-58
2021/10/22 14:06:13;;;;;;;8.60;2.20;;;;;;;;;;5067662;28;20032;-58
2021/10/22 14:08:39;;;;;;;6.32;1.80;;;;;;;;;;5067014;28;20270;-58
2021/10/22 14:11:11;;;;;;;7.85;1.70;;;;;;;;;;5068585;28;20035;-58
2021/10/22 14:14:00;;;;;;;5.00;2.03;;;;;;;;;;5067365;28;20034;-58
2021/10/22 14:16:43;;;;;;;13.48;2.15;;;;;;;;;;5065099;28;20339;-58
2021/10/22 14:29:49;;;;;;;4.95;1.40;;;;;;;;;;5066436;28;20035;-58
2021/10/22 14:32:14;;;;;;;8.10;2.00;;;;;;;;;;5068671;28;20383;-57
2021/10/22 14:34:40;;;;;;;5.72;1.63;;;;;;;;;;5069686;28;20030;-57
2021/10/22 14:37:05;;;;;;;5.70;1.95;;;;;;;;;;5068008;28;20608;-57
2021/10/22 14:39:31;;;;;;;5.40;2.15;;;;;;;;;;5065373;28;20048;-58
2021/10/22 14:41:57;;;;;;;7.47;3.10;;;;;;;;;;5067338;28;20139;-57
2021/10/22 14:44:27;;;;;;;7.72;3.15;;;;;;;;;;5066622;28;20116;-58
2021/10/22 14:47:02;;;;;;;11.63;4.18;;;;;;;;;;5066116;28;20102;-57
2021/10/22 14:49:41;;;;;;;8.98;3.78;;;;;;;;;;5063899;28;20020;-58
2021/10/22 14:54:55;;;;;;;7.50;2.40;;;;;;;;;;5043761;28;20151;-57
2021/10/22 14:57:20;;;;;;;10.68;3.03;;;;;;;;;;5069761;28;20036;-58
2021/10/22 14:59:46;;;;;;;4.90;2.53;;;;;;;;;;5067202;28;20040;-57
2021/10/22 15:02:15;;;;;;;12.20;2.20;;;;;;;;;;5066290;28;20032;-57
2021/10/22 15:04:42;;;;;;;6.57;1.88;;;;;;;;;;5064953;28;20108;-57
2021/10/22 15:07:08;;;;;;;7.60;1.90;;;;;;;;;;5065185;28;20032;-56
2021/10/22 15:09:34;;;;;;;7.63;1.60;;;;;;;;;;5066508;28;20066;-58
2021/10/22 15:12:01;;;;;;;8.18;1.60;;;;;;;;;;5066310;28;20025;-58
2021/10/22 15:14:28;;;;;;;6.32;2.03;;;;;;;;;;5066649;28;20639;-58
2021/10/22 15:16:54;;;;;;;11.05;2.30;;;;;;;;;;5066976;28;20039;-58